sensor_id;sensor_type;location;lat;lon;timestamp;P1;durP1;ratioP1;P2;durP2;ratioP2
50225;SDS011;36113;50.742;6.432;2022-10-17T00:02:20;6.83;;;4.40;;
50225;SDS011;36113;50.742;6.432;2022-10-17T00:04:45;5.93;;;4.73;;
50225;SDS011;36113;50.742;6.432;2022-10-17T00:07:10;4.97;;;4.47;;
50225;SDS011;36113;50.742;6.432;2022-10-17T00:09:36;4.30;;;4.00;;
50225;SDS011;36113;50.742;6.432;2022-10-17T00:12:01;8.93;;;4.40;;
50225;SDS011;36113;50.742;6.432;2022-10-17T00:14:26;4.67;;;3.97;;
50225;SDS011;36113;50.742;6.432;2022-10-17T00:16:52;5.97;;;4.13;;
50225;SDS011;36113;50.742;6.432;2022-10-17T00:19:17;6.07;;;3.97;;
50225;SDS011;36113;50.742;6.432;2022-10-17T00:21:42;5.50;;;4.50;;
50225;SDS011;36113;50.742;6.432;2022-10-17T00:24:08;6.63;;;3.93;;
50225;SDS011;36113;50.742;6.432;2022-10-17T00:26:33;4.70;;;4.00;;
50225;SDS011;36113;50.742;6.432;2022-10-17T00:28:58;6.30;;;4.23;;
50225;SDS011;36113;50.742;6.432;2022-10-17T00:31:24;4.47;;;3.97;;
50225;SDS011;36113;50.742;6.432;2022-10-17T00:33:49;6.97;;;3.83;;
50225;SDS011;36113;50.742;6.432;2022-10-17T00:38:42;7.70;;;4.15;;
50225;SDS011;36113;50.742;6.432;2022-10-17T00:41:10;5.32;;;4.22;;
50225;SDS011;36113;50.742;6.432;2022-10-17T00:43:51;4.93;;;4.15;;
50225;SDS011;36113;50.742;6.432;2022-10-17T00:46:17;4.20;;;3.80;;
50225;SDS011;36113;50.742;6.432;2022-10-17T00:48:43;6.53;;;3.90;;
50225;SDS011;36113;50.742;6.432;2022-10-17T00:51:08;4.97;;;4.17;;
50225;SDS011;36113;50.742;6.432;2022-10-17T00:53:34;5.13;;;3.67;;
50225;SDS011;36113;50.742;6.432;2022-10-17T00:56:03;6.32;;;4.40;;
50225;SDS011;36113;50.742;6.432;2022-10-17T00:58:28;6.43;;;4.17;;
50225;SDS011;36113;50.742;6.432;2022-10-17T01:00:54;4.20;;;3.80;;
50225;SDS011;36113;50.742;6.432;2022-10-17T01:03:19;4.47;;;4.10;;
50225;SDS011;36113;50.742;6.432;2022-10-17T01:05:44;5.53;;;3.90;;
50225;SDS011;36113;50.742;6.432;2022-10-17T01:08:10;5.47;;;3.90;;
50225;SDS011;36113;50.742;6.432;2022-10-17T01:27:21;4.97;;;3.70;;
50225;SDS011;36113;50.742;6.432;2022-10-17T01:32:48;4.70;;;4.00;;
50225;SDS011;36113;50.742;6.432;2022-10-17T01:35:43;4.50;;;4.20;;
50225;SDS011;36113;50.742;6.432;2022-10-17T01:38:20;5.05;;;4.53;;
50225;SDS011;36113;50.742;6.432;2022-10-17T01:41:05;4.50;;;4.10;;
50225;SDS011;36113;50.742;6.432;2022-10-17T01:46:28;3.70;;;3.50;;
50225;SDS011;36113;50.742;6.432;2022-10-17T01:48:59;4.50;;;4.10;;
50225;SDS011;36113;50.742;6.432;2022-10-17T01:51:32;5.82;;;4.07;;
50225;SDS011;36113;50.742;6.432;2022-10-17T01:54:21;6.40;;;4.63;;
50225;SDS011;36113;50.742;6.432;2022-10-17T01:56:53;4.95;;;4.40;;
50225;SDS011;36113;50.742;6.432;2022-10-17T01:59:23;6.18;;;4.07;;
50225;SDS011;36113;50.742;6.432;2022-10-17T02:01:53;4.15;;;3.85;;
50225;SDS011;36113;50.742;6.432;2022-10-17T02:04:21;4.65;;;4.22;;
50225;SDS011;36113;50.742;6.432;2022-10-17T02:09:23;6.22;;;4.20;;
50225;SDS011;36113;50.742;6.432;2022-10-17T02:12:14;15.20;;;6.73;;
50225;SDS011;36113;50.742;6.432;2022-10-17T02:20:19;7.53;;;4.45;;
50225;SDS011;36113;50.742;6.432;2022-10-17T02:33:11;6.38;;;4.07;;
50225;SDS011;36113;50.742;6.432;2022-10-17T02:35:42;6.13;;;3.78;;
50225;SDS011;36113;50.742;6.432;2022-10-17T02:38:12;4.75;;;4.25;;
50225;SDS011;36113;50.742;6.432;2022-10-17T02:40:38;6.87;;;4.10;;
50225;SDS011;36113;50.742;6.432;2022-10-17T02:43:05;4.20;;;3.90;;
50225;SDS011;36113;50.742;6.432;2022-10-17T02:45:31;7.80;;;3.57;;
50225;SDS011;36113;50.742;6.432;2022-10-17T02:48:07;6.75;;;3.88;;
50225;SDS011;36113;50.742;6.432;2022-10-17T02:50:56;5.03;;;4.10;;
50225;SDS011;36113;50.742;6.432;2022-10-17T02:53:39;4.30;;;4.00;;
50225;SDS011;36113;50.742;6.432;2022-10-17T02:56:18;5.78;;;4.10;;
50225;SDS011;36113;50.742;6.432;2022-10-17T02:58:45;6.93;;;4.18;;
50225;SDS011;36113;50.742;6.432;2022-10-17T03:01:14;5.90;;;4.45;;
50225;SDS011;36113;50.742;6.432;2022-10-17T03:06:06;7.93;;;3.88;;
50225;SDS011;36113;50.742;6.432;2022-10-17T03:08:31;6.03;;;3.47;;
50225;SDS011;36113;50.742;6.432;2022-10-17T03:10:56;4.30;;;4.00;;
50225;SDS011;36113;50.742;6.432;2022-10-17T03:13:22;5.03;;;4.20;;
50225;SDS011;36113;50.742;6.432;2022-10-17T03:15:47;4.23;;;3.80;;
50225;SDS011;36113;50.742;6.432;2022-10-17T03:18:12;6.57;;;4.10;;
50225;SDS011;36113;50.742;6.432;2022-10-17T03:20:38;4.97;;;4.43;;
50225;SDS011;36113;50.742;6.432;2022-10-17T03:23:03;4.13;;;3.83;;
50225;SDS011;36113;50.742;6.432;2022-10-17T03:25:29;4.60;;;4.20;;
50225;SDS011;36113;50.742;6.432;2022-10-17T03:27:56;4.47;;;3.50;;
50225;SDS011;36113;50.742;6.432;2022-10-17T03:30:23;5.60;;;4.18;;
50225;SDS011;36113;50.742;6.432;2022-10-17T03:32:48;4.50;;;3.90;;
50225;SDS011;36113;50.742;6.432;2022-10-17T03:35:13;7.00;;;3.80;;
50225;SDS011;36113;50.742;6.432;2022-10-17T03:37:39;6.60;;;4.00;;
50225;SDS011;36113;50.742;6.432;2022-10-17T03:40:04;6.20;;;3.50;;
50225;SDS011;36113;50.742;6.432;2022-10-17T03:42:30;3.77;;;3.47;;
50225;SDS011;36113;50.742;6.432;2022-10-17T03:44:56;8.70;;;4.10;;
50225;SDS011;36113;50.742;6.432;2022-10-17T03:47:21;4.23;;;3.87;;
50225;SDS011;36113;50.742;6.432;2022-10-17T03:49:46;3.87;;;3.50;;
50225;SDS011;36113;50.742;6.432;2022-10-17T03:52:12;4.27;;;3.87;;
50225;SDS011;36113;50.742;6.432;2022-10-17T03:54:38;4.80;;;3.80;;
50225;SDS011;36113;50.742;6.432;2022-10-17T03:57:03;4.77;;;4.10;;
50225;SDS011;36113;50.742;6.432;2022-10-17T03:59:29;4.53;;;4.07;;
50225;SDS011;36113;50.742;6.432;2022-10-17T04:01:54;5.40;;;3.87;;
50225;SDS011;36113;50.742;6.432;2022-10-17T04:04:20;4.50;;;4.20;;
50225;SDS011;36113;50.742;6.432;2022-10-17T04:06:45;3.93;;;3.60;;
50225;SDS011;36113;50.742;6.432;2022-10-17T04:09:11;12.63;;;3.90;;
50225;SDS011;36113;50.742;6.432;2022-10-17T04:11:36;5.97;;;4.33;;
50225;SDS011;36113;50.742;6.432;2022-10-17T04:14:02;4.30;;;3.57;;
50225;SDS011;36113;50.742;6.432;2022-10-17T04:16:27;9.37;;;3.93;;
50225;SDS011;36113;50.742;6.432;2022-10-17T04:18:54;3.93;;;3.60;;
50225;SDS011;36113;50.742;6.432;2022-10-17T04:21:21;4.97;;;3.92;;
50225;SDS011;36113;50.742;6.432;2022-10-17T04:26:12;4.57;;;3.80;;
50225;SDS011;36113;50.742;6.432;2022-10-17T04:28:38;4.53;;;3.90;;
50225;SDS011;36113;50.742;6.432;2022-10-17T04:31:04;8.60;;;3.87;;
50225;SDS011;36113;50.742;6.432;2022-10-17T04:33:31;3.92;;;3.53;;
50225;SDS011;36113;50.742;6.432;2022-10-17T04:35:58;4.88;;;4.03;;
50225;SDS011;36113;50.742;6.432;2022-10-17T04:38:25;4.60;;;3.78;;
50225;SDS011;36113;50.742;6.432;2022-10-17T04:40:51;4.75;;;3.72;;
50225;SDS011;36113;50.742;6.432;2022-10-17T04:43:17;4.60;;;4.20;;
50225;SDS011;36113;50.742;6.432;2022-10-17T04:45:42;3.97;;;3.67;;
50225;SDS011;36113;50.742;6.432;2022-10-17T04:48:07;4.77;;;4.37;;
50225;SDS011;36113;50.742;6.432;2022-10-17T04:50:33;4.13;;;3.30;;
50225;SDS011;36113;50.742;6.432;2022-10-17T04:52:58;7.87;;;3.87;;
50225;SDS011;36113;50.742;6.432;2022-10-17T04:55:23;4.93;;;3.73;;
50225;SDS011;36113;50.742;6.432;2022-10-17T04:57:49;6.97;;;3.97;;
50225;SDS011;36113;50.742;6.432;2022-10-17T05:00:14;3.43;;;3.23;;
50225;SDS011;36113;50.742;6.432;2022-10-17T05:02:39;4.90;;;3.60;;
50225;SDS011;36113;50.742;6.432;2022-10-17T05:05:05;4.40;;;4.10;;
50225;SDS011;36113;50.742;6.432;2022-10-17T05:07:30;6.57;;;3.53;;
50225;SDS011;36113;50.742;6.432;2022-10-17T05:09:56;4.00;;;3.57;;
50225;SDS011;36113;50.742;6.432;2022-10-17T05:12:22;11.85;;;4.00;;
50225;SDS011;36113;50.742;6.432;2022-10-17T05:14:48;5.73;;;3.97;;
50225;SDS011;36113;50.742;6.432;2022-10-17T05:17:13;6.63;;;3.80;;
50225;SDS011;36113;50.742;6.432;2022-10-17T05:19:38;6.90;;;3.70;;
50225;SDS011;36113;50.742;6.432;2022-10-17T05:22:03;4.20;;;3.63;;
50225;SDS011;36113;50.742;6.432;2022-10-17T05:24:29;4.40;;;3.60;;
50225;SDS011;36113;50.742;6.432;2022-10-17T05:26:54;3.60;;;3.40;;
50225;SDS011;36113;50.742;6.432;2022-10-17T05:29:19;6.30;;;4.00;;
50225;SDS011;36113;50.742;6.432;2022-10-17T05:31:45;7.17;;;3.60;;
50225;SDS011;36113;50.742;6.432;2022-10-17T05:34:10;6.30;;;4.20;;
50225;SDS011;36113;50.742;6.432;2022-10-17T05:36:36;4.53;;;3.67;;
50225;SDS011;36113;50.742;6.432;2022-10-17T05:39:02;6.10;;;3.42;;
50225;SDS011;36113;50.742;6.432;2022-10-17T05:41:27;4.97;;;4.10;;
50225;SDS011;36113;50.742;6.432;2022-10-17T05:43:52;3.63;;;3.33;;
50225;SDS011;36113;50.742;6.432;2022-10-17T05:46:18;5.33;;;3.80;;
50225;SDS011;36113;50.742;6.432;2022-10-17T05:48:43;6.37;;;4.20;;
50225;SDS011;36113;50.742;6.432;2022-10-17T05:51:12;4.45;;;3.67;;
50225;SDS011;36113;50.742;6.432;2022-10-17T05:53:38;3.80;;;3.50;;
50225;SDS011;36113;50.742;6.432;2022-10-17T05:56:06;3.80;;;3.47;;
50225;SDS011;36113;50.742;6.432;2022-10-17T05:58:33;5.63;;;3.72;;
50225;SDS011;36113;50.742;6.432;2022-10-17T06:01:03;3.75;;;3.42;;
50225;SDS011;36113;50.742;6.432;2022-10-17T06:03:29;8.20;;;3.33;;
50225;SDS011;36113;50.742;6.432;2022-10-17T06:05:55;6.10;;;3.30;;
50225;SDS011;36113;50.742;6.432;2022-10-17T06:08:21;5.80;;;3.13;;
50225;SDS011;36113;50.742;6.432;2022-10-17T06:10:47;5.63;;;3.10;;
50225;SDS011;36113;50.742;6.432;2022-10-17T06:13:14;5.70;;;3.20;;
50225;SDS011;36113;50.742;6.432;2022-10-17T06:15:42;4.50;;;3.10;;
50225;SDS011;36113;50.742;6.432;2022-10-17T06:18:08;4.27;;;3.63;;
50225;SDS011;36113;50.742;6.432;2022-10-17T06:20:34;4.10;;;3.33;;
50225;SDS011;36113;50.742;6.432;2022-10-17T06:23:00;3.13;;;2.93;;
50225;SDS011;36113;50.742;6.432;2022-10-17T06:25:25;4.63;;;3.47;;
50225;SDS011;36113;50.742;6.432;2022-10-17T06:27:50;3.13;;;2.80;;
50225;SDS011;36113;50.742;6.432;2022-10-17T06:30:16;3.20;;;2.90;;
50225;SDS011;36113;50.742;6.432;2022-10-17T06:32:41;10.10;;;3.73;;
50225;SDS011;36113;50.742;6.432;2022-10-17T06:35:06;6.80;;;3.47;;
50225;SDS011;36113;50.742;6.432;2022-10-17T06:37:32;3.97;;;3.40;;
50225;SDS011;36113;50.742;6.432;2022-10-17T06:39:58;4.72;;;3.35;;
50225;SDS011;36113;50.742;6.432;2022-10-17T06:42:24;3.93;;;3.23;;
50225;SDS011;36113;50.742;6.432;2022-10-17T06:44:49;11.40;;;3.30;;
50225;SDS011;36113;50.742;6.432;2022-10-17T06:47:14;3.50;;;3.03;;
50225;SDS011;36113;50.742;6.432;2022-10-17T06:49:40;8.97;;;4.30;;
50225;SDS011;36113;50.742;6.432;2022-10-17T06:52:05;13.23;;;3.70;;
50225;SDS011;36113;50.742;6.432;2022-10-17T06:54:31;4.13;;;3.03;;
50225;SDS011;36113;50.742;6.432;2022-10-17T06:56:56;6.57;;;3.87;;
50225;SDS011;36113;50.742;6.432;2022-10-17T06:59:21;3.77;;;3.40;;
50225;SDS011;36113;50.742;6.432;2022-10-17T07:01:47;3.43;;;3.13;;
50225;SDS011;36113;50.742;6.432;2022-10-17T07:04:12;4.70;;;3.20;;
50225;SDS011;36113;50.742;6.432;2022-10-17T07:06:38;5.40;;;3.27;;
50225;SDS011;36113;50.742;6.432;2022-10-17T07:09:03;3.90;;;3.30;;
50225;SDS011;36113;50.742;6.432;2022-10-17T07:11:31;5.20;;;3.63;;
50225;SDS011;36113;50.742;6.432;2022-10-17T07:13:59;3.13;;;2.80;;
50225;SDS011;36113;50.742;6.432;2022-10-17T07:16:24;4.20;;;2.87;;
50225;SDS011;36113;50.742;6.432;2022-10-17T07:18:49;4.93;;;3.10;;
50225;SDS011;36113;50.742;6.432;2022-10-17T07:21:15;5.23;;;3.07;;
50225;SDS011;36113;50.742;6.432;2022-10-17T07:23:41;4.00;;;2.83;;
50225;SDS011;36113;50.742;6.432;2022-10-17T07:26:08;4.60;;;3.10;;
50225;SDS011;36113;50.742;6.432;2022-10-17T07:28:36;3.50;;;3.15;;
50225;SDS011;36113;50.742;6.432;2022-10-17T07:31:07;7.15;;;3.40;;
50225;SDS011;36113;50.742;6.432;2022-10-17T07:33:34;6.07;;;3.33;;
50225;SDS011;36113;50.742;6.432;2022-10-17T07:35:59;5.90;;;3.13;;
50225;SDS011;36113;50.742;6.432;2022-10-17T07:38:26;6.73;;;2.90;;
50225;SDS011;36113;50.742;6.432;2022-10-17T07:43:18;4.07;;;3.25;;
50225;SDS011;36113;50.742;6.432;2022-10-17T07:45:43;4.37;;;3.23;;
50225;SDS011;36113;50.742;6.432;2022-10-17T07:48:09;3.23;;;3.03;;
50225;SDS011;36113;50.742;6.432;2022-10-17T07:50:34;6.07;;;3.00;;
50225;SDS011;36113;50.742;6.432;2022-10-17T07:52:59;3.77;;;3.10;;
50225;SDS011;36113;50.742;6.432;2022-10-17T07:55:24;6.27;;;3.13;;
50225;SDS011;36113;50.742;6.432;2022-10-17T07:57:50;5.43;;;3.10;;
50225;SDS011;36113;50.742;6.432;2022-10-17T08:00:15;8.80;;;3.63;;
50225;SDS011;36113;50.742;6.432;2022-10-17T08:02:41;3.10;;;2.90;;
50225;SDS011;36113;50.742;6.432;2022-10-17T08:05:06;3.87;;;3.57;;
50225;SDS011;36113;50.742;6.432;2022-10-17T08:07:32;7.27;;;3.50;;
50225;SDS011;36113;50.742;6.432;2022-10-17T08:09:57;7.17;;;3.63;;
50225;SDS011;36113;50.742;6.432;2022-10-17T08:12:22;7.47;;;3.27;;
50225;SDS011;36113;50.742;6.432;2022-10-17T08:14:49;6.10;;;3.22;;
50225;SDS011;36113;50.742;6.432;2022-10-17T08:17:15;8.63;;;3.53;;
50225;SDS011;36113;50.742;6.432;2022-10-17T08:19:40;4.67;;;3.10;;
50225;SDS011;36113;50.742;6.432;2022-10-17T08:22:06;8.30;;;3.70;;
50225;SDS011;36113;50.742;6.432;2022-10-17T08:24:31;5.57;;;2.90;;
50225;SDS011;36113;50.742;6.432;2022-10-17T08:26:56;6.30;;;3.47;;
50225;SDS011;36113;50.742;6.432;2022-10-17T08:29:22;5.50;;;3.63;;
50225;SDS011;36113;50.742;6.432;2022-10-17T08:31:48;3.80;;;3.37;;
50225;SDS011;36113;50.742;6.432;2022-10-17T08:34:13;6.17;;;3.43;;
50225;SDS011;36113;50.742;6.432;2022-10-17T08:36:39;6.53;;;3.07;;
50225;SDS011;36113;50.742;6.432;2022-10-17T08:39:05;6.97;;;4.10;;
50225;SDS011;36113;50.742;6.432;2022-10-17T08:41:42;4.53;;;3.13;;
50225;SDS011;36113;50.742;6.432;2022-10-17T08:47:44;4.45;;;3.78;;
50225;SDS011;36113;50.742;6.432;2022-10-17T08:50:57;3.40;;;3.20;;
50225;SDS011;36113;50.742;6.432;2022-10-17T08:55:50;4.97;;;3.15;;
50225;SDS011;36113;50.742;6.432;2022-10-17T08:58:21;9.38;;;3.40;;
50225;SDS011;36113;50.742;6.432;2022-10-17T09:00:50;3.92;;;3.00;;
50225;SDS011;36113;50.742;6.432;2022-10-17T09:03:44;5.22;;;3.30;;
50225;SDS011;36113;50.742;6.432;2022-10-17T09:18:00;6.30;;;3.00;;
50225;SDS011;36113;50.742;6.432;2022-10-17T09:20:35;3.97;;;2.72;;
50225;SDS011;36113;50.742;6.432;2022-10-17T09:23:26;4.82;;;3.17;;
50225;SDS011;36113;50.742;6.432;2022-10-17T09:28:20;4.10;;;3.55;;
50225;SDS011;36113;50.742;6.432;2022-10-17T09:30:55;5.45;;;3.00;;
50225;SDS011;36113;50.742;6.432;2022-10-17T09:33:51;4.80;;;2.95;;
50225;SDS011;36113;50.742;6.432;2022-10-17T09:36:20;3.05;;;2.83;;
50225;SDS011;36113;50.742;6.432;2022-10-17T09:38:50;5.18;;;2.95;;
50225;SDS011;36113;50.742;6.432;2022-10-17T09:41:19;3.35;;;3.05;;
50225;SDS011;36113;50.742;6.432;2022-10-17T09:43:47;6.82;;;3.22;;
50225;SDS011;36113;50.742;6.432;2022-10-17T09:51:14;3.30;;;3.00;;
50225;SDS011;36113;50.742;6.432;2022-10-17T09:53:42;5.53;;;2.78;;
50225;SDS011;36113;50.742;6.432;2022-10-17T09:56:12;4.28;;;2.80;;
50225;SDS011;36113;50.742;6.432;2022-10-17T09:58:41;8.27;;;3.28;;
50225;SDS011;36113;50.742;6.432;2022-10-17T10:01:19;5.70;;;3.30;;
50225;SDS011;36113;50.742;6.432;2022-10-17T10:03:47;3.92;;;3.15;;
50225;SDS011;36113;50.742;6.432;2022-10-17T10:08:51;2.87;;;2.67;;
50225;SDS011;36113;50.742;6.432;2022-10-17T10:11:23;2.85;;;2.63;;
50225;SDS011;36113;50.742;6.432;2022-10-17T10:13:50;4.65;;;3.15;;
50225;SDS011;36113;50.742;6.432;2022-10-17T10:16:25;5.80;;;3.37;;
50225;SDS011;36113;50.742;6.432;2022-10-17T10:18:55;7.82;;;3.55;;
50225;SDS011;36113;50.742;6.432;2022-10-17T10:21:22;4.03;;;3.37;;
50225;SDS011;36113;50.742;6.432;2022-10-17T10:26:24;5.97;;;2.95;;
50225;SDS011;36113;50.742;6.432;2022-10-17T10:31:25;3.72;;;3.15;;
50225;SDS011;36113;50.742;6.432;2022-10-17T10:33:53;5.75;;;3.30;;
50225;SDS011;36113;50.742;6.432;2022-10-17T10:36:18;5.57;;;2.90;;
50225;SDS011;36113;50.742;6.432;2022-10-17T10:38:50;5.45;;;3.10;;
50225;SDS011;36113;50.742;6.432;2022-10-17T10:41:19;16.52;;;3.47;;
50225;SDS011;36113;50.742;6.432;2022-10-17T10:43:46;5.68;;;3.20;;
50225;SDS011;36113;50.742;6.432;2022-10-17T10:46:23;3.78;;;2.85;;
50225;SDS011;36113;50.742;6.432;2022-10-17T10:48:59;5.20;;;3.13;;
50225;SDS011;36113;50.742;6.432;2022-10-17T10:59:14;3.58;;;3.10;;
50225;SDS011;36113;50.742;6.432;2022-10-17T11:02:17;4.20;;;2.95;;
50225;SDS011;36113;50.742;6.432;2022-10-17T11:05:04;7.22;;;3.00;;
50225;SDS011;36113;50.742;6.432;2022-10-17T11:07:41;4.97;;;3.80;;
50225;SDS011;36113;50.742;6.432;2022-10-17T11:13:13;5.50;;;3.30;;
50225;SDS011;36113;50.742;6.432;2022-10-17T11:15:47;7.80;;;3.17;;
50225;SDS011;36113;50.742;6.432;2022-10-17T11:18:27;3.67;;;2.85;;
50225;SDS011;36113;50.742;6.432;2022-10-17T11:21:08;5.97;;;3.53;;
50225;SDS011;36113;50.742;6.432;2022-10-17T11:23:46;3.58;;;2.55;;
50225;SDS011;36113;50.742;6.432;2022-10-17T11:26:18;5.57;;;3.47;;
50225;SDS011;36113;50.742;6.432;2022-10-17T11:28:54;5.00;;;2.85;;
50225;SDS011;36113;50.742;6.432;2022-10-17T11:31:22;3.88;;;2.58;;
50225;SDS011;36113;50.742;6.432;2022-10-17T11:36:51;6.32;;;2.90;;
50225;SDS011;36113;50.742;6.432;2022-10-17T11:39:31;7.53;;;3.30;;
50225;SDS011;36113;50.742;6.432;2022-10-17T11:42:06;7.45;;;3.05;;
50225;SDS011;36113;50.742;6.432;2022-10-17T11:44:38;7.05;;;3.30;;
50225;SDS011;36113;50.742;6.432;2022-10-17T11:47:10;3.42;;;3.13;;
50225;SDS011;36113;50.742;6.432;2022-10-17T11:49:44;11.95;;;2.70;;
50225;SDS011;36113;50.742;6.432;2022-10-17T11:55:10;7.65;;;2.55;;
50225;SDS011;36113;50.742;6.432;2022-10-17T12:08:24;5.30;;;2.13;;
50225;SDS011;36113;50.742;6.432;2022-10-17T12:11:00;7.32;;;2.35;;
50225;SDS011;36113;50.742;6.432;2022-10-17T12:15:55;7.57;;;2.50;;
50225;SDS011;36113;50.742;6.432;2022-10-17T12:18:23;8.27;;;2.38;;
50225;SDS011;36113;50.742;6.432;2022-10-17T12:20:54;5.15;;;2.22;;
50225;SDS011;36113;50.742;6.432;2022-10-17T12:23:25;5.85;;;2.03;;
50225;SDS011;36113;50.742;6.432;2022-10-17T12:25:57;4.50;;;2.13;;
50225;SDS011;36113;50.742;6.432;2022-10-17T12:28:29;3.08;;;1.83;;
50225;SDS011;36113;50.742;6.432;2022-10-17T12:38:50;5.53;;;2.40;;
50225;SDS011;36113;50.742;6.432;2022-10-17T12:46:49;3.72;;;2.13;;
50225;SDS011;36113;50.742;6.432;2022-10-17T12:55:16;3.38;;;1.95;;
50225;SDS011;36113;50.742;6.432;2022-10-17T12:57:50;6.47;;;2.10;;
50225;SDS011;36113;50.742;6.432;2022-10-17T13:02:54;1.98;;;1.60;;
50225;SDS011;36113;50.742;6.432;2022-10-17T13:05:26;5.88;;;2.20;;
50225;SDS011;36113;50.742;6.432;2022-10-17T13:07:54;5.20;;;2.70;;
50225;SDS011;36113;50.742;6.432;2022-10-17T13:10:23;5.90;;;2.25;;
50225;SDS011;36113;50.742;6.432;2022-10-17T13:12:52;5.95;;;2.17;;
50225;SDS011;36113;50.742;6.432;2022-10-17T13:15:24;3.92;;;2.28;;
50225;SDS011;36113;50.742;6.432;2022-10-17T13:17:57;4.93;;;2.50;;
50225;SDS011;36113;50.742;6.432;2022-10-17T13:20:24;4.40;;;2.15;;
50225;SDS011;36113;50.742;6.432;2022-10-17T13:22:52;3.80;;;2.15;;
50225;SDS011;36113;50.742;6.432;2022-10-17T13:25:19;4.22;;;2.15;;
50225;SDS011;36113;50.742;6.432;2022-10-17T13:27:45;5.40;;;2.33;;
50225;SDS011;36113;50.742;6.432;2022-10-17T13:30:44;5.18;;;2.13;;
50225;SDS011;36113;50.742;6.432;2022-10-17T13:33:02;2.25;;;1.90;;
50225;SDS011;36113;50.742;6.432;2022-10-17T13:35:42;3.67;;;2.08;;
50225;SDS011;36113;50.742;6.432;2022-10-17T13:38:09;3.87;;;1.97;;
50225;SDS011;36113;50.742;6.432;2022-10-17T13:40:40;3.95;;;1.77;;
50225;SDS011;36113;50.742;6.432;2022-10-17T13:43:14;2.38;;;2.00;;
50225;SDS011;36113;50.742;6.432;2022-10-17T13:45:44;3.90;;;2.08;;
50225;SDS011;36113;50.742;6.432;2022-10-17T13:48:20;8.00;;;2.95;;
50225;SDS011;36113;50.742;6.432;2022-10-17T13:50:54;5.30;;;2.38;;
50225;SDS011;36113;50.742;6.432;2022-10-17T13:53:32;4.28;;;2.33;;
50225;SDS011;36113;50.742;6.432;2022-10-17T13:59:15;5.93;;;2.63;;
50225;SDS011;36113;50.742;6.432;2022-10-17T14:01:17;4.00;;;2.72;;
50225;SDS011;36113;50.742;6.432;2022-10-17T14:03:45;5.03;;;2.13;;
50225;SDS011;36113;50.742;6.432;2022-10-17T14:06:26;6.15;;;2.72;;
50225;SDS011;36113;50.742;6.432;2022-10-17T14:09:00;2.95;;;2.00;;
50225;SDS011;36113;50.742;6.432;2022-10-17T14:11:40;5.00;;;2.05;;
50225;SDS011;36113;50.742;6.432;2022-10-17T14:14:17;6.38;;;1.80;;
50225;SDS011;36113;50.742;6.432;2022-10-17T14:16:44;4.00;;;1.90;;
50225;SDS011;36113;50.742;6.432;2022-10-17T14:21:51;9.20;;;1.90;;
50225;SDS011;36113;50.742;6.432;2022-10-17T14:26:49;4.38;;;2.08;;
50225;SDS011;36113;50.742;6.432;2022-10-17T14:29:21;2.08;;;1.90;;
50225;SDS011;36113;50.742;6.432;2022-10-17T14:31:47;6.07;;;2.40;;
50225;SDS011;36113;50.742;6.432;2022-10-17T14:34:22;6.07;;;2.03;;
50225;SDS011;36113;50.742;6.432;2022-10-17T14:36:53;4.38;;;2.13;;
50225;SDS011;36113;50.742;6.432;2022-10-17T14:39:21;6.37;;;2.30;;
50225;SDS011;36113;50.742;6.432;2022-10-17T14:41:49;3.05;;;2.13;;
50225;SDS011;36113;50.742;6.432;2022-10-17T14:46:46;5.35;;;2.45;;
50225;SDS011;36113;50.742;6.432;2022-10-17T14:50:01;6.53;;;2.33;;
50225;SDS011;36113;50.742;6.432;2022-10-17T14:54:43;6.05;;;2.38;;
50225;SDS011;36113;50.742;6.432;2022-10-17T14:57:17;7.75;;;2.53;;
50225;SDS011;36113;50.742;6.432;2022-10-17T14:59:43;6.25;;;3.35;;
50225;SDS011;36113;50.742;6.432;2022-10-17T15:02:08;3.80;;;2.20;;
50225;SDS011;36113;50.742;6.432;2022-10-17T15:04:34;4.03;;;2.05;;
50225;SDS011;36113;50.742;6.432;2022-10-17T15:07:00;6.37;;;2.27;;
50225;SDS011;36113;50.742;6.432;2022-10-17T15:09:25;5.07;;;2.63;;
50225;SDS011;36113;50.742;6.432;2022-10-17T15:11:53;3.45;;;2.53;;
50225;SDS011;36113;50.742;6.432;2022-10-17T15:14:19;4.35;;;2.40;;
50225;SDS011;36113;50.742;6.432;2022-10-17T15:16:45;7.33;;;2.40;;
50225;SDS011;36113;50.742;6.432;2022-10-17T15:19:11;5.87;;;2.67;;
50225;SDS011;36113;50.742;6.432;2022-10-17T15:21:37;3.63;;;2.40;;
50225;SDS011;36113;50.742;6.432;2022-10-17T15:24:03;11.73;;;2.80;;
50225;SDS011;36113;50.742;6.432;2022-10-17T15:26:29;7.70;;;2.60;;
50225;SDS011;36113;50.742;6.432;2022-10-17T15:28:56;7.07;;;2.72;;
50225;SDS011;36113;50.742;6.432;2022-10-17T15:31:22;3.77;;;2.90;;
50225;SDS011;36113;50.742;6.432;2022-10-17T15:33:49;5.95;;;2.75;;
50225;SDS011;36113;50.742;6.432;2022-10-17T15:36:18;6.03;;;2.97;;
50225;SDS011;36113;50.742;6.432;2022-10-17T15:38:46;4.53;;;3.15;;
50225;SDS011;36113;50.742;6.432;2022-10-17T15:41:12;6.80;;;3.15;;
50225;SDS011;36113;50.742;6.432;2022-10-17T15:43:38;5.10;;;2.95;;
50225;SDS011;36113;50.742;6.432;2022-10-17T15:46:05;3.70;;;2.40;;
50225;SDS011;36113;50.742;6.432;2022-10-17T15:48:36;10.65;;;2.92;;
50225;SDS011;36113;50.742;6.432;2022-10-17T15:51:02;9.33;;;5.50;;
50225;SDS011;36113;50.742;6.432;2022-10-17T15:53:27;6.57;;;4.30;;
50225;SDS011;36113;50.742;6.432;2022-10-17T15:55:52;7.60;;;4.00;;
50225;SDS011;36113;50.742;6.432;2022-10-17T15:58:18;8.13;;;4.07;;
50225;SDS011;36113;50.742;6.432;2022-10-17T16:00:43;10.87;;;5.83;;
50225;SDS011;36113;50.742;6.432;2022-10-17T16:03:09;10.73;;;4.68;;
50225;SDS011;36113;50.742;6.432;2022-10-17T16:05:35;9.90;;;4.53;;
50225;SDS011;36113;50.742;6.432;2022-10-17T16:08:00;9.13;;;3.83;;
50225;SDS011;36113;50.742;6.432;2022-10-17T16:10:26;6.70;;;3.50;;
50225;SDS011;36113;50.742;6.432;2022-10-17T16:12:52;11.03;;;4.20;;
50225;SDS011;36113;50.742;6.432;2022-10-17T16:15:22;12.63;;;4.13;;
50225;SDS011;36113;50.742;6.432;2022-10-17T16:17:49;9.18;;;4.45;;
50225;SDS011;36113;50.742;6.432;2022-10-17T16:20:19;8.18;;;4.47;;
50225;SDS011;36113;50.742;6.432;2022-10-17T16:22:45;11.13;;;5.23;;
50225;SDS011;36113;50.742;6.432;2022-10-17T16:25:19;11.05;;;6.50;;
50225;SDS011;36113;50.742;6.432;2022-10-17T16:27:52;19.73;;;9.27;;
50225;SDS011;36113;50.742;6.432;2022-10-17T16:30:20;16.08;;;8.10;;
50225;SDS011;36113;50.742;6.432;2022-10-17T16:32:46;14.38;;;8.10;;
50225;SDS011;36113;50.742;6.432;2022-10-17T16:35:16;21.60;;;9.63;;
50225;SDS011;36113;50.742;6.432;2022-10-17T16:37:43;13.85;;;7.85;;
50225;SDS011;36113;50.742;6.432;2022-10-17T16:40:08;10.80;;;7.20;;
50225;SDS011;36113;50.742;6.432;2022-10-17T16:42:34;13.40;;;8.02;;
50225;SDS011;36113;50.742;6.432;2022-10-17T16:45:00;17.20;;;8.23;;
50225;SDS011;36113;50.742;6.432;2022-10-17T16:47:25;13.43;;;7.53;;
50225;SDS011;36113;50.742;6.432;2022-10-17T16:49:50;13.00;;;8.53;;
50225;SDS011;36113;50.742;6.432;2022-10-17T16:52:16;13.73;;;8.80;;
50225;SDS011;36113;50.742;6.432;2022-10-17T16:54:41;11.03;;;6.80;;
50225;SDS011;36113;50.742;6.432;2022-10-17T16:57:06;11.57;;;5.43;;
50225;SDS011;36113;50.742;6.432;2022-10-17T16:59:32;10.70;;;6.83;;
50225;SDS011;36113;50.742;6.432;2022-10-17T17:01:57;8.47;;;6.60;;
50225;SDS011;36113;50.742;6.432;2022-10-17T17:04:22;12.83;;;8.07;;
50225;SDS011;36113;50.742;6.432;2022-10-17T17:06:48;7.37;;;5.90;;
50225;SDS011;36113;50.742;6.432;2022-10-17T17:09:13;7.10;;;5.83;;
50225;SDS011;36113;50.742;6.432;2022-10-17T17:11:38;6.57;;;4.80;;
50225;SDS011;36113;50.742;6.432;2022-10-17T17:14:04;6.40;;;4.87;;
50225;SDS011;36113;50.742;6.432;2022-10-17T17:16:31;4.82;;;4.32;;
50225;SDS011;36113;50.742;6.432;2022-10-17T17:19:04;6.55;;;4.60;;
50225;SDS011;36113;50.742;6.432;2022-10-17T17:21:31;5.90;;;4.65;;
50225;SDS011;36113;50.742;6.432;2022-10-17T17:23:59;7.72;;;4.70;;